Browning, IL (62624)

9:09 PM CST on February 05, 2016 (GMT -0600)
APRSWXNET | | Change Station
CLOSE
Current Station
Personal Weather Station
Location: Bader, IL
Elevation: 649 ft
Nearby Weather Stations
Active Advisory: Flood Warning

Elev 649 ft 40.14 °N, 90.42 °W | Updated 30 minutes ago

Partly Cloudy
Partly Cloudy
27 °F
Feels Like 27 °F
N
1
Wind Variable Wind from East
Gusts 2.0 mph

Today
High -- | Low -- °F
--% Chance of Precip.
Yesterday
High -- | Low -- °F
Precip. -- in
Pressure 30.35 in
Visibility 10.0 miles
Clouds Clear
Windchill 27 °F
Dew Point 23 °F
Humidity 83%
Rainfall in
Snow Depth Not available.
7:06 AM 5:24 PM
Waning Crescent, 8% visible
METAR KIJX 060255Z AUTO 10005KT 10SM CLR M02/M04 A3035 RMK AO2 T10191041
Pressure 30.35 in
Visibility 10.0 miles
Clouds Clear
Windchill 27 °F
Dew Point 23 °F
Humidity 83%
Rainfall in
Snow Depth Not available.
7:06 AM 5:24 PM
Waning Crescent, 8% visible
METAR KIJX 060255Z AUTO 10005KT 10SM CLR M02/M04 A3035 RMK AO2 T10191041

10-Day Weather Forecast

Almanac

Astronomy

Feb. 05, 2016 Rise Set
Actual Time
Civil Twilight
Nautical Twilight
Astronomical Twilight
Moon
Length of Visible Light
Length of Day
Tomorrow will be .
, % of the Moon is Illuminated

Today's Extremes

State Highs State Lows

Community

WunderPhotos

Upload Photos

1,890,915 photos uploaded!

WunderBlog® & News

Nearby

Air Quality

  Air Quality AQ Index Pollutant
Not available.

Snow Depth

Station Depth Elevation

Earthquake Activity

City Distance Mag. Time & Date
Minimum magnitude displayed is 2.5.

Coastal Water Temperatures

Place Temperature

Stations

Nearby Weather Stations

Station Location Temp. Windchill Dew Point Humidity Wind Precip. Elev Updated Type
                   

Watches & Warnings

Flood Warning
Issued: 10:06 AM CST Feb. 5, 2016 – National Weather Service

The Flood Warning continues for
the Illinois River at Beardstown.
* Until Wednesday morning.
* At 315 PM Thursday the stage was 13.3 feet.
* Flood stage is 14 feet.
* Minor flooding is forecast.
* Forecast... rise above flood stage by Sunday morning and continue to
rise to near 14.1 feet by Sunday afternoon.The river will fall
below flood stage by early Wednesday morning.
* Impact... at 14.4 feet... seepage problems begin in the Coal Creek
drainage and levee district.


                  Fld observed forecast 6 am
location stg stg day time Sat sun Mon

Illinois River
Beardstown 14 13.3 Thu 3 PM 13.7 14.0 14.1


Lat... Lon 4018 9023 4012 9017 4008 9037 3999 9046
      3999 9058 4015 9043


07